Time;durP1;ratioP1;P1;durP2;ratioP2;P2;SDS_P1;SDS_P2;PMS_P1;PMS_P2;Temp;Humidity;BMP_temperature;BMP_pressure;BME280_temperature;BME280_humidity;BME280_pressure;Samples;Min_cycle;Max_cycle;Signal;HPM_P1;HPM_P2
2023/12/26 00:00:37;;;;;;;4.03;1.27;;;;;;;10.00;100.00;100546.56;5027274;28;20175;-78
2023/12/26 00:03:06;;;;;;;9.27;1.77;;;;;;;10.02;100.00;100542.09;5034994;28;20443;-78
2023/12/26 00:05:35;;;;;;;4.40;1.30;;;;;;;10.02;100.00;100533.41;5027840;28;20096;-78
2023/12/26 00:08:03;;;;;;;8.23;1.60;;;;;;;10.02;100.00;100538.66;5030883;28;20156;-78
2023/12/26 00:10:29;;;;;;;10.50;1.87;;;;;;;10.03;100.00;100541.22;5034298;28;20025;-78
2023/12/26 00:12:54;;;;;;;11.45;1.90;;;;;;;10.02;100.00;100546.50;5034641;28;20025;-78
2023/12/26 00:15:19;;;;;;;12.75;1.65;;;;;;;10.02;100.00;100544.72;5035786;28;20076;-77
2023/12/26 00:17:45;;;;;;;16.70;2.00;;;;;;;10.03;100.00;100546.44;5034806;28;20049;-78
2023/12/26 00:20:12;;;;;;;9.38;1.63;;;;;;;10.04;100.00;100553.38;5033298;28;20064;-78
2023/12/26 00:22:39;;;;;;;14.73;2.45;;;;;;;10.03;100.00;100543.81;5037154;28;20140;-78
2023/12/26 00:25:05;;;;;;;11.68;2.38;;;;;;;10.04;100.00;100539.44;5032436;28;20033;-78
2023/12/26 00:27:31;;;;;;;14.82;2.28;;;;;;;10.04;100.00;100535.06;5017874;28;20134;-78
2023/12/26 00:29:56;;;;;;;21.27;2.30;;;;;;;10.03;100.00;100535.97;5026606;28;20045;-78
2023/12/26 00:32:22;;;;;;;13.75;2.42;;;;;;;10.05;100.00;100546.38;5038382;28;20093;-78
2023/12/26 00:34:47;;;;;;;12.75;2.25;;;;;;;10.03;100.00;100535.13;5036629;28;20160;-78
2023/12/26 00:37:12;;;;;;;16.92;2.53;;;;;;;10.04;100.00;100534.19;5037542;28;20037;-78
2023/12/26 00:39:38;;;;;;;16.42;2.53;;;;;;;10.04;100.00;100542.03;5037094;28;20044;-78
2023/12/26 00:42:03;;;;;;;17.42;2.38;;;;;;;10.05;100.00;100528.91;5035786;28;20043;-78
2023/12/26 00:44:29;;;;;;;9.02;1.73;;;;;;;10.05;100.00;100526.28;5038275;28;20104;-78
2023/12/26 00:46:54;;;;;;;15.00;2.88;;;;;;;10.06;100.00;100542.81;5035784;28;20026;-77
2023/12/26 00:49:20;;;;;;;12.70;2.63;;;;;;;10.08;100.00;100541.88;5035622;28;20351;-77
2023/12/26 00:51:45;;;;;;;14.40;2.03;;;;;;;10.09;100.00;100547.94;5038315;28;20413;-78
2023/12/26 00:54:10;;;;;;;13.82;2.47;;;;;;;10.10;100.00;100545.25;5038399;28;20037;-77
2023/12/26 00:56:36;;;;;;;14.50;3.30;;;;;;;10.09;100.00;100546.16;5038010;28;20060;-77
2023/12/26 00:59:01;;;;;;;18.48;2.45;;;;;;;10.08;100.00;100556.72;5037642;28;20053;-78
2023/12/26 01:01:26;;;;;;;16.33;2.45;;;;;;;10.11;100.00;100561.81;5037854;28;20290;-77
2023/12/26 01:03:52;;;;;;;21.73;2.17;;;;;;;10.13;100.00;100549.50;5036451;28;20033;-78
2023/12/26 01:06:17;;;;;;;23.02;3.33;;;;;;;10.13;100.00;100558.22;5035343;28;20029;-78
2023/12/26 01:08:43;;;;;;;15.15;2.63;;;;;;;10.10;100.00;100550.50;5036592;28;20099;-78
2023/12/26 01:11:08;;;;;;;23.45;3.28;;;;;;;10.11;100.00;100559.19;5035266;28;20265;-77
2023/12/26 01:13:36;;;;;;;23.55;3.25;;;;;;;10.14;100.00;100551.22;5035489;28;20037;-77
2023/12/26 01:16:03;;;;;;;20.60;2.92;;;;;;;10.14;100.00;100569.53;5036287;28;20053;-78
2023/12/26 01:18:32;;;;;;;24.90;3.88;;;;;;;10.17;100.00;100566.78;5035647;28;20267;-77
2023/12/26 01:20:57;;;;;;;22.60;3.85;;;;;;;10.17;100.00;100579.88;5035788;28;20044;-77
2023/12/26 01:23:23;;;;;;;17.92;3.67;;;;;;;10.16;100.00;100583.38;5034882;28;20280;-78
2023/12/26 01:25:49;;;;;;;23.63;3.60;;;;;;;10.12;100.00;100569.59;5031930;28;20210;-78
2023/12/26 01:28:15;;;;;;;25.65;3.47;;;;;;;10.17;100.00;100553.69;5025384;28;20040;-77
2023/12/26 01:30:41;;;;;;;28.02;3.30;;;;;;;10.11;100.00;100580.13;5036056;28;20049;-77
2023/12/26 01:33:07;;;;;;;22.85;3.20;;;;;;;10.13;100.00;100583.50;5020199;28;20363;-77
2023/12/26 01:35:32;;;;;;;15.48;2.75;;;;;;;10.11;100.00;100598.44;5016382;28;20037;-77
2023/12/26 01:37:58;;;;;;;16.63;2.22;;;;;;;10.13;100.00;100588.75;5014159;28;20060;-77
2023/12/26 01:40:23;;;;;;;17.50;2.70;;;;;;;10.12;100.00;100603.59;5015025;28;20038;-77
2023/12/26 01:42:49;;;;;;;17.17;3.30;;;;;;;10.09;100.00;100595.88;5015382;28;20080;-77
2023/12/26 01:45:15;;;;;;;21.88;2.97;;;;;;;10.06;100.00;100596.03;5030946;28;20100;-77
2023/12/26 01:47:42;;;;;;;9.57;1.98;;;;;;;10.07;100.00;100596.88;5033906;28;20033;-77
2023/12/26 01:50:09;;;;;;;13.88;2.58;;;;;;;10.05;100.00;100596.09;5021596;28;20048;-77
2023/12/26 01:52:38;;;;;;;6.55;1.90;;;;;;;10.05;100.00;100614.41;5028570;28;20025;-77
2023/12/26 01:55:05;;;;;;;8.80;1.65;;;;;;;10.06;100.00;100619.56;5033286;28;20669;-77
2023/12/26 01:57:34;;;;;;;17.33;2.08;;;;;;;10.09;100.00;100618.59;5023937;28;20053;-77
2023/12/26 02:00:01;;;;;;;18.30;2.25;;;;;;;10.04;100.00;100631.88;5032594;28;20037;-76
2023/12/26 02:02:28;;;;;;;9.60;1.90;;;;;;;10.06;100.00;100624.81;5024987;28;20482;-77
2023/12/26 02:04:53;;;;;;;15.10;1.48;;;;;;;10.07;100.00;100626.50;5013280;28;20032;-77
2023/12/26 02:07:19;;;;;;;12.75;2.13;;;;;;;10.06;100.00;100623.94;5029617;28;20360;-77
2023/12/26 02:09:44;;;;;;;11.52;1.67;;;;;;;10.02;100.00;100628.44;5034857;28;20041;-77
2023/12/26 02:12:10;;;;;;;8.10;1.27;;;;;;;10.01;100.00;100628.53;5033111;28;20033;-77
2023/12/26 02:14:35;;;;;;;14.68;2.13;;;;;;;10.01;100.00;100639.84;5034543;28;20037;-77
2023/12/26 02:17:05;;;;;;;9.25;1.55;;;;;;;9.94;100.00;100641.84;5029289;28;20039;-77
2023/12/26 02:19:30;;;;;;;8.60;1.63;;;;;;;9.97;100.00;100654.81;5014958;28;20041;-76
2023/12/26 02:21:55;;;;;;;11.40;1.52;;;;;;;9.98;100.00;100656.50;5021952;28;20112;-76
2023/12/26 02:24:21;;;;;;;5.82;1.85;;;;;;;9.95;100.00;100650.53;5033214;28;20044;-77
2023/12/26 02:26:52;;;;;;;8.30;1.27;;;;;;;9.95;100.00;100656.66;5034222;28;20321;-77
2023/12/26 02:29:18;;;;;;;12.15;1.83;;;;;;;9.91;100.00;100657.66;5034796;28;20034;-77
2023/12/26 02:31:45;;;;;;;6.60;1.48;;;;;;;9.91;100.00;100668.13;5033191;28;20089;-77
2023/12/26 02:34:11;;;;;;;5.38;1.35;;;;;;;9.91;100.00;100660.28;5025924;28;20382;-77
2023/12/26 02:36:37;;;;;;;5.47;1.30;;;;;;;9.83;100.00;100664.97;5031122;28;20069;-77
2023/12/26 02:39:03;;;;;;;6.85;1.60;;;;;;;9.84;100.00;100679.78;5033966;28;20049;-77
2023/12/26 02:41:28;;;;;;;12.93;1.85;;;;;;;9.85;100.00;100667.53;5034696;28;20052;-77
2023/12/26 02:43:54;;;;;;;10.40;1.90;;;;;;;9.83;100.00;100687.69;5033930;28;20275;-77
2023/12/26 02:46:20;;;;;;;11.68;1.40;;;;;;;9.73;100.00;100674.09;5034838;28;20236;-77
2023/12/26 02:48:45;;;;;;;5.30;1.00;;;;;;;9.74;100.00;100666.19;5032622;28;20021;-77
2023/12/26 02:51:10;;;;;;;10.52;1.20;;;;;;;9.73;100.00;100682.81;5033792;28;20232;-77
2023/12/26 02:53:36;;;;;;;15.15;1.85;;;;;;;9.70;100.00;100685.53;5034131;28;20033;-77
2023/12/26 02:56:02;;;;;;;5.70;1.25;;;;;;;9.69;100.00;100681.22;5031985;28;20428;-77
2023/12/26 02:58:27;;;;;;;10.40;1.38;;;;;;;9.69;100.00;100693.44;5032751;28;20371;-77
2023/12/26 03:00:53;;;;;;;5.22;1.30;;;;;;;9.71;100.00;100704.69;5032116;28;20033;-77
2023/12/26 03:03:18;;;;;;;6.22;1.33;;;;;;;9.72;100.00;100709.88;5034028;28;20029;-77
2023/12/26 03:05:43;;;;;;;5.20;1.70;;;;;;;9.72;100.00;100717.72;5033941;28;20083;-77
2023/12/26 03:08:09;;;;;;;8.57;1.45;;;;;;;9.66;100.00;100717.97;5032015;28;20351;-77
2023/12/26 03:10:34;;;;;;;8.23;1.20;;;;;;;9.71;100.00;100702.91;5026625;28;20353;-77
2023/12/26 03:12:59;;;;;;;4.95;1.25;;;;;;;9.72;100.00;100717.72;5028878;28;20064;-77
2023/12/26 03:15:25;;;;;;;4.35;1.52;;;;;;;9.64;100.00;100725.03;5032923;28;20084;-77
2023/12/26 03:17:53;;;;;;;7.28;1.23;;;;;;;9.64;100.00;100726.75;5016884;28;20100;-77
2023/12/26 03:20:19;;;;;;;6.90;1.30;;;;;;;9.64;100.00;100727.63;5031190;28;20071;-77
2023/12/26 03:22:44;;;;;;;4.32;1.15;;;;;;;9.57;100.00;100723.56;5032004;28;20655;-77
2023/12/26 03:25:09;;;;;;;9.60;1.35;;;;;;;9.56;100.00;100733.13;5031709;28;20104;-77
2023/12/26 03:27:35;;;;;;;8.48;1.60;;;;;;;9.55;100.00;100746.25;5033401;28;20033;-77
2023/12/26 03:30:00;;;;;;;6.07;1.38;;;;;;;9.56;100.00;100745.38;5024633;28;20045;-77
2023/12/26 03:32:25;;;;;;;8.27;1.60;;;;;;;9.59;100.00;100735.66;5028777;28;20341;-77
2023/12/26 03:34:51;;;;;;;5.38;1.10;;;;;;;9.55;100.00;100749.75;5036652;28;20124;-77
2023/12/26 03:37:16;;;;;;;6.15;1.50;;;;;;;9.55;100.00;100757.59;5031411;28;20033;-77
2023/12/26 03:39:42;;;;;;;9.13;1.80;;;;;;;9.48;100.00;100761.34;5036465;28;20048;-77
2023/12/26 03:42:08;;;;;;;6.53;1.60;;;;;;;9.53;100.00;100754.19;5036669;28;20041;-77
2023/12/26 03:44:33;;;;;;;7.80;1.50;;;;;;;9.44;100.00;100740.59;5036204;28;20064;-77
2023/12/26 03:46:58;;;;;;;8.77;1.70;;;;;;;9.37;100.00;100764.34;5035584;28;20044;-77
2023/12/26 03:49:24;;;;;;;5.82;1.50;;;;;;;9.35;100.00;100767.91;5037139;28;20168;-77
2023/12/26 03:51:49;;;;;;;5.55;1.15;;;;;;;9.31;100.00;100769.78;5036535;28;20047;-77
2023/12/26 03:54:15;;;;;;;7.32;1.58;;;;;;;9.26;100.00;100768.25;5037321;28;20278;-77
2023/12/26 03:56:40;;;;;;;3.88;0.95;;;;;;;9.25;100.00;100779.63;5037555;28;20316;-77
2023/12/26 03:59:06;;;;;;;7.25;1.15;;;;;;;9.23;100.00;100774.44;5032915;28;20041;-74
2023/12/26 04:01:31;;;;;;;4.65;1.38;;;;;;;9.17;100.00;100766.84;5021905;28;20040;-74
2023/12/26 04:03:57;;;;;;;8.65;1.20;;;;;;;9.10;100.00;100765.38;5032996;28;20044;-74
2023/12/26 04:06:22;;;;;;;11.70;1.40;;;;;;;9.12;100.00;100776.59;5027038;28;20353;-74
2023/12/26 04:08:48;;;;;;;11.13;1.55;;;;;;;9.08;100.00;100801.09;5035359;28;20073;-75
2023/12/26 04:11:13;;;;;;;7.85;1.67;;;;;;;9.02;100.00;100810.00;5034831;28;20029;-74
2023/12/26 04:13:39;;;;;;;7.75;1.42;;;;;;;8.90;100.00;100807.84;5037332;28;20324;-75
2023/12/26 04:16:05;;;;;;;8.93;1.20;;;;;;;8.87;100.00;100816.63;5035800;28;20041;-74
2023/12/26 04:18:31;;;;;;;6.72;1.50;;;;;;;8.98;100.00;100826.72;5036733;28;20277;-74
2023/12/26 04:20:57;;;;;;;11.15;1.70;;;;;;;8.94;100.00;100815.50;5035634;28;20099;-74
2023/12/26 04:23:22;;;;;;;7.43;2.00;;;;;;;8.95;100.00;100821.59;5037180;28;20045;-74
2023/12/26 04:25:47;;;;;;;9.60;1.90;;;;;;;8.94;100.00;100814.66;5035766;28;20072;-74
2023/12/26 04:28:13;;;;;;;8.40;1.83;;;;;;;8.98;100.00;100824.09;5017262;28;20044;-74
2023/12/26 04:30:39;;;;;;;5.38;1.25;;;;;;;8.95;100.00;100837.25;5017945;28;20336;-74
2023/12/26 04:33:07;;;;;;;10.02;1.92;;;;;;;8.91;100.00;100833.03;5016783;28;20363;-74
2023/12/26 04:35:32;;;;;;;10.10;2.17;;;;;;;8.87;100.00;100842.75;5029956;28;20037;-74
2023/12/26 04:37:58;;;;;;;11.77;1.45;;;;;;;8.87;100.00;100852.34;5034832;28;20252;-74
2023/12/26 04:40:23;;;;;;;11.27;1.98;;;;;;;8.90;100.00;100862.69;5035041;28;20099;-74
2023/12/26 04:42:49;;;;;;;8.60;1.70;;;;;;;8.87;100.00;100863.63;5033273;28;20041;-74
2023/12/26 04:45:14;;;;;;;13.80;1.77;;;;;;;8.76;100.00;100852.69;5033534;28;20041;-74
2023/12/26 04:47:40;;;;;;;13.55;2.08;;;;;;;8.68;100.00;100857.31;5034489;28;20375;-74
2023/12/26 04:50:05;;;;;;;13.57;1.25;;;;;;;8.63;100.00;100862.69;5034228;28;20291;-74
2023/12/26 04:52:31;;;;;;;7.03;1.33;;;;;;;8.71;100.00;100859.81;5026107;28;20030;-74
2023/12/26 04:54:56;;;;;;;8.73;1.55;;;;;;;8.64;100.00;100861.75;5015924;28;20105;-74
2023/12/26 04:57:21;;;;;;;8.60;1.23;;;;;;;8.58;100.00;100849.75;5017451;28;20041;-74
2023/12/26 04:59:47;;;;;;;10.93;1.80;;;;;;;8.54;100.00;100863.81;5025642;28;20052;-74
2023/12/26 05:02:12;;;;;;;8.68;1.90;;;;;;;8.53;100.00;100872.59;5035566;28;20224;-74
2023/12/26 05:04:38;;;;;;;6.22;1.17;;;;;;;8.53;100.00;100867.34;5026804;28;20033;-74
2023/12/26 05:07:03;;;;;;;6.20;1.23;;;;;;;8.51;100.00;100871.75;5015967;28;20155;-74
2023/12/26 05:09:29;;;;;;;12.30;1.55;;;;;;;8.48;100.00;100877.09;5025451;28;20029;-74
2023/12/26 05:11:54;;;;;;;8.02;1.30;;;;;;;8.45;100.00;100885.84;5035526;28;20028;-74
2023/12/26 05:14:20;;;;;;;5.30;1.35;;;;;;;8.43;100.00;100886.81;5034440;28;20052;-74
2023/12/26 05:16:48;;;;;;;10.93;2.42;;;;;;;8.37;100.00;100886.97;5035758;28;20025;-74
2023/12/26 05:19:14;;;;;;;4.78;1.23;;;;;;;8.38;100.00;100896.50;5025392;28;20033;-74
2023/12/26 05:21:39;;;;;;;7.47;1.27;;;;;;;8.29;97.66;100900.22;5034109;28;20205;-74
2023/12/26 05:24:05;;;;;;;7.13;1.42;;;;;;;8.33;98.01;100909.69;5033011;28;20085;-74
2023/12/26 05:26:40;;;;;;;8.02;1.48;;;;;;;8.29;99.31;100904.59;5036192;28;20029;-74
2023/12/26 05:29:06;;;;;;;11.90;1.75;;;;;;;8.26;98.41;100910.78;5016851;28;20117;-74
2023/12/26 05:31:31;;;;;;;8.57;1.33;;;;;;;8.26;99.12;100911.63;5035236;28;20355;-74
2023/12/26 05:33:58;;;;;;;7.28;1.02;;;;;;;8.22;98.33;100920.47;5035267;28;20037;-74
2023/12/26 05:36:23;;;;;;;7.45;1.35;;;;;;;8.23;98.88;100919.53;5032323;28;20040;-74
2023/12/26 05:38:49;;;;;;;7.68;1.10;;;;;;;8.21;99.85;100925.72;5015245;28;20042;-74
2023/12/26 05:41:14;;;;;;;5.53;1.20;;;;;;;8.18;99.85;100921.41;5016754;28;20044;-74
2023/12/26 05:43:40;;;;;;;6.50;1.70;;;;;;;8.12;99.70;100944.25;5013911;28;20222;-74
2023/12/26 05:46:05;;;;;;;10.73;3.03;;;;;;;8.10;100.00;100939.06;5025368;28;20068;-74
2023/12/26 05:48:31;;;;;;;7.45;2.05;;;;;;;8.12;100.00;100934.66;5018277;28;20277;-74
2023/12/26 05:50:56;;;;;;;9.88;1.90;;;;;;;8.08;100.00;100938.25;5023261;28;20297;-74
2023/12/26 05:53:23;;;;;;;11.57;1.63;;;;;;;8.11;100.00;100959.03;5033879;28;20060;-74
2023/12/26 05:55:48;;;;;;;9.48;2.03;;;;;;;8.08;100.00;100957.38;5032754;28;20090;-74
2023/12/26 05:58:13;;;;;;;10.95;1.90;;;;;;;8.06;100.00;100969.59;5032997;28;20343;-74
2023/12/26 06:00:39;;;;;;;9.55;1.50;;;;;;;8.09;100.00;100968.66;5033905;28;20033;-74
2023/12/26 06:03:04;;;;;;;7.50;2.15;;;;;;;8.06;100.00;100976.59;5034197;28;20051;-74
2023/12/26 06:05:29;;;;;;;5.55;1.40;;;;;;;8.07;100.00;100979.13;5034838;28;20040;-74
2023/12/26 06:07:55;;;;;;;16.67;1.88;;;;;;;8.06;100.00;100990.47;5032373;28;20124;-74
2023/12/26 06:10:20;;;;;;;14.02;1.17;;;;;;;8.06;100.00;100987.88;5034131;28;20359;-74
2023/12/26 06:12:45;;;;;;;8.85;1.50;;;;;;;8.07;100.00;100997.38;5015776;28;20039;-74
2023/12/26 06:15:11;;;;;;;9.07;1.20;;;;;;;8.05;100.00;101003.56;5014933;28;20048;-74
2023/12/26 06:17:36;;;;;;;7.47;1.30;;;;;;;7.99;100.00;101006.34;5015109;28;20100;-74
2023/12/26 06:20:03;;;;;;;10.38;1.73;;;;;;;7.97;100.00;100998.56;5033565;28;20025;-74
2023/12/26 06:22:28;;;;;;;9.18;2.00;;;;;;;7.99;100.00;101014.16;5020627;28;20101;-74
2023/12/26 06:24:54;;;;;;;12.93;2.15;;;;;;;7.98;100.00;101013.28;5032531;28;20115;-74
2023/12/26 06:27:19;;;;;;;8.73;2.08;;;;;;;8.00;100.00;101018.47;5032091;28;20334;-74
2023/12/26 06:29:44;;;;;;;8.82;1.77;;;;;;;8.03;100.00;101018.38;5033656;28;20064;-74
2023/12/26 06:32:10;;;;;;;11.43;2.13;;;;;;;8.02;100.00;101027.09;5033581;28;20044;-74
2023/12/26 06:34:35;;;;;;;19.67;1.63;;;;;;;7.98;100.00;101008.06;5035721;28;20106;-74
2023/12/26 06:37:00;;;;;;;8.82;1.90;;;;;;;7.95;98.60;101025.56;5028265;28;20037;-74
2023/12/26 06:39:26;;;;;;;12.95;2.03;;;;;;;7.96;99.23;101030.72;5014842;28;20038;-74
2023/12/26 06:41:51;;;;;;;10.20;2.25;;;;;;;7.94;100.00;101040.34;5024041;28;20088;-74
2023/12/26 06:44:16;;;;;;;9.15;1.85;;;;;;;7.92;99.76;101044.75;5028672;28;20034;-74
2023/12/26 06:46:42;;;;;;;8.52;1.70;;;;;;;7.91;99.57;101052.63;5021623;28;20217;-74
2023/12/26 06:49:08;;;;;;;14.25;1.60;;;;;;;7.92;99.73;101051.72;5022140;28;20084;-74
2023/12/26 06:51:39;;;;;;;13.75;1.58;;;;;;;7.88;100.00;101051.81;5022247;28;20036;-74
2023/12/26 06:54:04;;;;;;;7.13;1.42;;;;;;;7.93;100.00;101063.84;5022932;28;20030;-74
2023/12/26 06:56:29;;;;;;;7.45;1.17;;;;;;;7.92;100.00;101059.56;5026130;28;20068;-74
2023/12/26 06:58:55;;;;;;;6.47;0.90;;;;;;;7.94;100.00;101050.78;5027712;28;20033;-74
2023/12/26 07:01:21;;;;;;;10.52;1.40;;;;;;;7.95;100.00;101044.69;5023092;28;20064;-74
2023/12/26 07:03:46;;;;;;;8.75;1.63;;;;;;;7.95;100.00;101044.69;5020731;28;20427;-74
2023/12/26 07:06:11;;;;;;;5.53;1.65;;;;;;;7.95;100.00;101056.84;5023615;28;20080;-74
2023/12/26 07:08:37;;;;;;;3.88;0.88;;;;;;;7.97;100.00;101066.34;5019350;28;20049;-74
2023/12/26 07:11:02;;;;;;;7.78;1.80;;;;;;;8.00;100.00;101070.63;5020925;28;20029;-74
2023/12/26 07:13:28;;;;;;;6.25;1.60;;;;;;;8.02;100.00;101068.81;5024633;28;20096;-74
2023/12/26 07:15:53;;;;;;;12.52;1.48;;;;;;;8.02;100.00;101074.94;5018709;28;20036;-74
2023/12/26 07:18:19;;;;;;;12.50;1.77;;;;;;;8.00;100.00;101088.88;5023410;28;20041;-74
2023/12/26 07:20:44;;;;;;;15.55;2.53;;;;;;;7.98;100.00;101088.91;5018723;28;20301;-74
2023/12/26 07:23:10;;;;;;;10.80;1.80;;;;;;;7.98;100.00;101093.28;5024834;28;20045;-74
2023/12/26 07:25:37;;;;;;;12.95;1.80;;;;;;;7.97;100.00;101091.59;5028320;28;20034;-74
2023/12/26 07:28:03;;;;;;;6.35;1.42;;;;;;;7.91;100.00;101096.94;5013832;28;20118;-74
2023/12/26 07:30:28;;;;;;;12.73;2.00;;;;;;;7.90;100.00;101092.66;5016918;28;20048;-74
2023/12/26 07:32:54;;;;;;;7.15;1.77;;;;;;;7.93;100.00;101101.25;5032295;28;20079;-74
2023/12/26 07:35:19;;;;;;;9.98;1.67;;;;;;;7.91;100.00;101105.63;5033296;28;20359;-74
2023/12/26 07:37:45;;;;;;;7.32;1.25;;;;;;;7.88;100.00;101109.16;5032554;28;20041;-74
2023/12/26 07:40:11;;;;;;;7.35;1.20;;;;;;;7.89;100.00;101120.44;5033773;28;20036;-74
2023/12/26 07:42:36;;;;;;;4.95;1.00;;;;;;;7.85;100.00;101131.84;5032677;28;20348;-74
2023/12/26 07:45:02;;;;;;;10.43;2.17;;;;;;;7.85;100.00;101131.84;5033133;28;20038;-74
2023/12/26 07:47:27;;;;;;;8.65;1.45;;;;;;;7.85;100.00;101137.91;5018428;28;20045;-74
2023/12/26 07:49:53;;;;;;;10.93;1.67;;;;;;;7.85;100.00;101142.28;5025560;28;20067;-74
2023/12/26 07:52:18;;;;;;;11.10;1.50;;;;;;;7.79;100.00;101134.63;5033159;28;20312;-74
2023/12/26 07:54:43;;;;;;;10.25;1.88;;;;;;;7.76;100.00;101140.75;5026272;28;20368;-74
2023/12/26 07:57:09;;;;;;;7.57;1.30;;;;;;;7.75;100.00;101148.59;5020803;28;20130;-74
2023/12/26 07:59:34;;;;;;;17.90;1.90;;;;;;;7.72;100.00;101154.78;5013516;28;20037;-74
2023/12/26 08:02:00;;;;;;;10.77;1.50;;;;;;;7.67;100.00;101173.09;5014051;28;20641;-74
2023/12/26 08:04:25;;;;;;;7.80;1.35;;;;;;;7.67;100.00;101172.25;5019275;28;20100;-74
2023/12/26 08:06:50;;;;;;;11.90;1.88;;;;;;;7.71;100.00;101181.72;5019384;28;20054;-74
2023/12/26 08:09:16;;;;;;;11.07;1.52;;;;;;;7.69;100.00;101193.94;5024216;28;20367;-74
2023/12/26 08:11:41;;;;;;;17.30;1.88;;;;;;;7.65;100.00;101203.56;5013586;28;20038;-74
2023/12/26 08:14:07;;;;;;;10.45;2.00;;;;;;;7.66;100.00;101196.63;5021789;28;20055;-74
2023/12/26 08:16:32;;;;;;;9.85;1.77;;;;;;;7.66;100.00;101197.47;5031862;28;20486;-74
2023/12/26 08:19:00;;;;;;;10.60;1.80;;;;;;;7.59;100.00;101198.50;5031242;28;20217;-74
2023/12/26 08:21:26;;;;;;;11.73;2.20;;;;;;;7.57;100.00;101205.50;5036807;28;20340;-74
2023/12/26 08:23:51;;;;;;;6.00;1.30;;;;;;;7.62;100.00;101223.63;5035687;28;20087;-74
2023/12/26 08:26:16;;;;;;;13.05;2.38;;;;;;;7.61;100.00;101227.16;5024649;28;20317;-74
2023/12/26 08:28:42;;;;;;;16.67;1.85;;;;;;;7.66;100.00;101226.16;5032182;28;20064;-74
2023/12/26 08:31:07;;;;;;;17.30;1.88;;;;;;;7.63;100.00;101225.38;5035485;28;20096;-74
2023/12/26 08:33:35;;;;;;;12.93;1.80;;;;;;;7.57;100.00;101236.78;5036309;28;20018;-74
2023/12/26 08:36:01;;;;;;;13.85;2.20;;;;;;;7.55;100.00;101229.88;5034431;28;20100;-74
2023/12/26 08:38:28;;;;;;;14.07;1.73;;;;;;;7.56;100.00;101232.47;5035492;28;20048;-74
2023/12/26 08:40:53;;;;;;;10.25;1.25;;;;;;;7.61;100.00;101246.25;5034718;28;20049;-74
2023/12/26 08:43:19;;;;;;;14.18;2.22;;;;;;;7.61;100.00;101250.63;5035635;28;20126;-74
2023/12/26 08:45:44;;;;;;;20.02;2.33;;;;;;;7.59;100.00;101249.78;5026782;28;20131;-74
2023/12/26 08:48:10;;;;;;;12.93;2.35;;;;;;;7.63;100.00;101254.03;5025577;28;20239;-74
2023/12/26 08:50:35;;;;;;;14.32;1.83;;;;;;;7.60;100.00;101256.69;5030121;28;20037;-74
2023/12/26 08:53:01;;;;;;;8.82;1.73;;;;;;;7.61;100.00;101266.25;5030833;28;20048;-74
2023/12/26 08:55:26;;;;;;;19.20;2.38;;;;;;;7.64;100.00;101264.44;5028732;28;20332;-74
2023/12/26 08:57:51;;;;;;;17.05;2.47;;;;;;;7.63;100.00;101280.97;5029291;28;20037;-74
2023/12/26 09:00:17;;;;;;;14.45;2.22;;;;;;;7.65;100.00;101276.56;5018278;28;20100;-74
2023/12/26 09:02:44;;;;;;;12.95;2.58;;;;;;;7.63;100.00;101291.38;5028313;28;20072;-74
2023/12/26 09:05:11;;;;;;;19.00;2.00;;;;;;;7.61;100.00;101294.94;5029584;28;20252;-74
2023/12/26 09:07:36;;;;;;;9.77;2.50;;;;;;;7.62;100.00;101297.50;5030548;28;20053;-74
2023/12/26 09:10:02;;;;;;;17.15;2.40;;;;;;;7.61;100.00;101302.75;5030325;28;20025;-74
2023/12/26 09:12:28;;;;;;;10.23;2.28;;;;;;;7.62;100.00;101297.50;5049989;28;20018;-74
2023/12/26 09:14:53;;;;;;;13.85;2.30;;;;;;;7.65;100.00;101315.66;5033664;28;20356;-74
2023/12/26 09:17:19;;;;;;;15.02;2.13;;;;;;;7.65;100.00;101315.66;5033438;28;20029;-74
2023/12/26 09:19:44;;;;;;;12.52;2.25;;;;;;;7.67;100.00;101326.06;5029368;28;20170;-74
2023/12/26 09:22:10;;;;;;;15.65;2.20;;;;;;;7.68;100.00;101326.03;5030966;28;20313;-74
2023/12/26 09:24:35;;;;;;;13.20;1.63;;;;;;;7.70;100.00;101320.81;5032283;28;20124;-74
2023/12/26 09:27:00;;;;;;;13.18;2.13;;;;;;;7.75;100.00;101328.50;5024990;28;20324;-74
2023/12/26 09:29:26;;;;;;;16.88;2.53;;;;;;;7.76;100.00;101330.25;5031268;28;20060;-74
2023/12/26 09:31:54;;;;;;;9.55;1.73;;;;;;;7.79;100.00;101340.63;5028745;28;20376;-74
2023/12/26 09:34:19;;;;;;;17.02;1.90;;;;;;;7.81;100.00;101339.69;5030779;28;20037;-74
2023/12/26 09:36:44;;;;;;;14.38;2.03;;;;;;;7.84;100.00;101349.16;5029145;28;20183;-74
2023/12/26 09:39:10;;;;;;;12.25;2.28;;;;;;;7.87;100.00;101347.34;5030084;28;20063;-74
2023/12/26 09:41:35;;;;;;;14.25;1.60;;;;;;;7.90;100.00;101351.66;5029933;28;20310;-74
2023/12/26 09:44:01;;;;;;;16.58;1.75;;;;;;;7.93;100.00;101367.25;5027864;28;20401;-74
2023/12/26 09:46:28;;;;;;;15.68;2.60;;;;;;;7.96;100.00;101363.72;5028163;28;20083;-74
2023/12/26 09:48:54;;;;;;;10.15;2.00;;;;;;;7.98;100.00;101385.41;5027410;28;20059;-74
2023/12/26 09:51:22;;;;;;;8.27;1.42;;;;;;;7.98;100.00;101365.38;5028037;28;20126;-74
2023/12/26 09:53:56;;;;;;;19.17;2.30;;;;;;;8.01;100.00;101383.59;5027426;28;20060;-74
2023/12/26 09:56:22;;;;;;;12.13;1.70;;;;;;;8.01;100.00;101380.13;5044441;28;20028;-74
2023/12/26 09:58:49;;;;;;;14.23;1.92;;;;;;;8.02;100.00;101397.47;5028411;28;20041;-74
2023/12/26 10:01:14;;;;;;;15.20;1.88;;;;;;;8.06;100.00;101409.59;5027836;28;20025;-74
2023/12/26 10:03:41;;;;;;;11.52;2.40;;;;;;;8.08;100.00;101410.41;5025863;28;20136;-74
2023/12/26 10:06:08;;;;;;;12.45;2.85;;;;;;;8.10;100.00;101411.25;5026526;28;20430;-74
2023/12/26 10:08:33;;;;;;;16.15;2.00;;;;;;;8.11;100.00;101404.25;5032797;28;20029;-74
2023/12/26 10:10:58;;;;;;;21.40;2.88;;;;;;;8.13;100.00;101405.97;5042013;28;20362;-74
2023/12/26 10:13:24;;;;;;;12.13;1.80;;;;;;;8.16;100.00;101412.84;5029921;28;20092;-74
2023/12/26 10:15:49;;;;;;;19.73;2.67;;;;;;;8.20;100.00;101424.94;5032198;28;20056;-74
2023/12/26 10:18:16;;;;;;;12.13;2.30;;;;;;;8.24;100.00;101426.59;5038135;28;20037;-74
2023/12/26 10:20:42;;;;;;;10.55;2.40;;;;;;;8.26;100.00;101423.06;5043111;28;20033;-74
2023/12/26 10:23:07;;;;;;;9.48;1.75;;;;;;;8.32;100.00;101423.81;5043309;28;20055;-74
2023/12/26 10:25:33;;;;;;;6.95;2.13;;;;;;;8.35;100.00;101431.56;5045806;28;20374;-74
2023/12/26 10:27:59;;;;;;;23.60;2.38;;;;;;;8.37;100.00;101435.03;5043738;28;20528;-74
2023/12/26 10:30:25;;;;;;;15.38;2.20;;;;;;;8.37;98.13;101430.66;5040056;28;20056;-74
2023/12/26 10:32:59;;;;;;;13.57;2.13;;;;;;;8.39;98.59;101430.63;5036244;28;20029;-74
2023/12/26 10:35:24;;;;;;;12.75;2.40;;;;;;;8.42;97.53;101441.00;5040310;28;20140;-74
2023/12/26 10:37:53;;;;;;;12.15;2.10;;;;;;;8.43;97.36;101451.44;5043724;28;20024;-74
2023/12/26 10:40:18;;;;;;;14.18;2.05;;;;;;;8.47;96.78;101439.16;5045923;28;20060;-74
2023/12/26 10:42:47;;;;;;;13.05;1.98;;;;;;;8.47;97.78;101435.72;5035708;28;20041;-74
2023/12/26 10:45:14;;;;;;;11.50;2.13;;;;;;;8.45;97.25;101441.81;5038610;28;20339;-74
2023/12/26 10:47:43;;;;;;;9.02;1.60;;;;;;;8.47;98.22;101440.94;5035290;28;20354;-74
2023/12/26 10:50:12;;;;;;;14.85;2.28;;;;;;;8.45;96.84;101451.41;5042447;28;20135;-74
2023/12/26 10:52:41;;;;;;;13.30;1.42;;;;;;;8.43;96.51;101467.09;5037596;28;20291;-74
2023/12/26 10:55:07;;;;;;;10.32;1.85;;;;;;;8.42;97.35;101460.16;5031872;28;20445;-74
2023/12/26 10:57:34;;;;;;;15.25;2.05;;;;;;;8.44;96.60;101470.53;5038794;28;20431;-74
2023/12/26 13:52:10;;;;;;;10.50;1.83;;;;;;;8.01;94.13;101659.25;5042995;28;20112;-73
2023/12/26 13:55:13;;;;;;;5.75;1.35;;;;;;;8.04;94.03;101669.59;5041809;28;20029;-73
2023/12/26 13:58:16;;;;;;;5.90;1.98;;;;;;;8.03;94.04;101676.59;5040916;28;20101;-73
2023/12/26 14:01:19;;;;;;;9.40;1.80;;;;;;;8.08;94.83;101689.56;5043547;28;20098;-73
2023/12/26 14:04:22;;;;;;;4.78;1.85;;;;;;;8.06;95.87;101694.81;5036045;28;20033;-73
2023/12/26 14:07:25;;;;;;;5.20;1.10;;;;;;;8.03;95.84;101699.22;5047684;28;20053;-73